Acton, MT

8:28 PM MST on December 21, 2014 (GMT -0700)
Ironwood MT | Change Station
CLOSE
Current Station
Personal Weather Station
Location: Billings, MT
Elevation: 3504 ft
Nearby Weather Stations
Active Advisory: High Wind Warning, Special Statement Active Notice: Local Storm Report

Elev 3504 ft 45.82 °N, 108.66 °W | Updated 3 seconds ago

Mostly Cloudy
Mostly Cloudy
42.8 °F
Feels Like 38 °F
N
9.1
Wind Variable Wind from WNW
Gusts 13.0 mph

Today
High -- | Low -- °F
--% Chance of Precip.
Yesterday
High -- | Low -- °F
Precip. -- in
7:53 AM 4:32 PM
New Moon, 0% visible
Pressure 29.66 in
Visibility 10.0 miles
Clouds Mostly Cloudy 10000 ft
Windchill 38 °F
Dew Point 21 °F
Humidity 41%
Rainfall 0.19 in
Snow Depth Not available.
UV 0 out of 12
Pollen .10 out of 12
Air Quality Not available.
Flu Activity Not available.
METAR KBIL 220253Z 29010KT 10SM BKN100 06/M06 A2962 RMK AO2 PK WND 30031/0205 SLP042 T00561061 51032

More Conditions Fewer Conditions

Pressure 29.66 in
Visibility 10.0 miles
Clouds Mostly Cloudy 10000 ft
Windchill 38 °F
Dew Point 21 °F
Humidity 41%
Rainfall 0.19 in
Snow Depth Not available.
UV 0 out of 12
Pollen .10 out of 12
Air Quality Not available.
Flu Activity Not available.
METAR KBIL 220253Z 29010KT 10SM BKN100 06/M06 A2962 RMK AO2 PK WND 30031/0205 SLP042 T00561061 51032

More Conditions Fewer Conditions

10-Day Weather Forecast

Almanac

Astronomy

Dec. 21, 2014 Rise Set
Actual Time
Civil Twilight
Nautical Twilight
Astronomical Twilight
Moon
Length of Visible Light
Length of Day
Tomorrow will be .
, % of the Moon is Illuminated

Today's Extremes

State Highs State Lows

Community

WunderPhotos

Upload Photos

1,779,529 photos uploaded!

WunderBlogs® & News

Nearby

Air Quality

  Air Quality AQ Index Pollutant
Not available.

Snow Depth

Station Depth Elevation

Earthquake Activity

City Distance Mag. Time & Date
Minimum magnitude displayed is 2.5.

Coastal Water Temperatures

Place Temperature

Nearby Weather Stations